Time;durP1;ratioP1;P1;durP2;ratioP2;P2;SDS_P1;SDS_P2;PMS_P1;PMS_P2;Temp;Humidity;BMP_temperature;BMP_pressure;BME280_temperature;BME280_humidity;BME280_pressure;Samples;Min_cycle;Max_cycle;Signal;HPM_P1;HPM_P2
2023/06/08 00:01:25;;;;;;;;;;;;;;;20.52;70.99;97031.11;618899;229;62889;-61
2023/06/08 00:03:54;;;;;;;;;;;;;;;20.51;70.97;97032.16;618433;229;66645;-61
2023/06/08 00:06:26;;;;;;;;;;;;;;;20.52;70.98;97041.79;618828;229;66766;-61
2023/06/08 00:08:53;;;;;;;;;;;;;;;20.51;70.97;97034.03;618785;229;62810;-60
2023/06/08 00:11:21;;;;;;;;;;;;;;;20.51;70.98;97031.36;618748;229;67276;-60
2023/06/08 00:13:48;;;;;;;;;;;;;;;20.51;70.97;97028.70;618835;229;66800;-60
2023/06/08 00:16:16;;;;;;;;;;;;;;;20.51;70.95;97039.38;618828;229;63665;-60
2023/06/08 00:18:44;;;;;;;;;;;;;;;20.51;70.96;97034.83;618814;229;64440;-60
2023/06/08 00:21:12;;;;;;;;;;;;;;;20.50;70.97;97032.44;618563;229;64648;-60
2023/06/08 00:23:40;;;;;;;;;;;;;;;20.51;70.96;97034.03;618734;229;65175;-60
2023/06/08 00:26:08;;;;;;;;;;;;;;;20.51;70.95;97028.70;618852;229;67122;-60
2023/06/08 00:28:35;;;;;;;;;;;;;;;20.51;70.96;97034.83;618791;229;67061;-62
2023/06/08 00:31:02;;;;;;;;;;;;;;;20.51;70.94;97034.03;618785;229;64818;-62
2023/06/08 00:33:30;;;;;;;;;;;;;;;20.51;70.93;97044.71;618793;229;67076;-62
2023/06/08 00:35:58;;;;;;;;;;;;;;;20.50;70.95;97043.92;618806;229;67767;-62
2023/06/08 00:38:26;;;;;;;;;;;;;;;20.51;70.94;97037.50;618794;229;64898;-62
2023/06/08 00:40:53;;;;;;;;;;;;;;;20.50;70.95;97038.58;618842;229;66173;-62
2023/06/08 00:43:21;;;;;;;;;;;;;;;20.51;70.92;97037.50;618806;229;64926;-62
2023/06/08 00:45:48;;;;;;;;;;;;;;;20.50;70.92;97035.91;618783;229;64984;-62
2023/06/08 00:48:16;;;;;;;;;;;;;;;20.50;70.90;97027.90;618799;229;64766;-62
2023/06/08 00:50:46;;;;;;;;;;;;;;;20.50;70.89;97024.44;618770;229;66993;-62
2023/06/08 00:53:14;;;;;;;;;;;;;;;20.50;70.90;97030.56;618828;229;64985;-63
2023/06/08 00:55:43;;;;;;;;;;;;;;;20.50;70.93;97033.23;618811;229;64954;-64
2023/06/08 00:58:13;;;;;;;;;;;;;;;20.50;70.93;97035.91;618772;229;65251;-63
2023/06/08 01:00:41;;;;;;;;;;;;;;;20.51;70.91;97034.03;618776;229;63519;-63
2023/06/08 01:03:08;;;;;;;;;;;;;;;20.49;70.93;97028.98;618805;229;64986;-63
2023/06/08 01:05:38;;;;;;;;;;;;;;;20.51;70.91;97032.16;618812;229;64955;-63
2023/06/08 01:08:08;;;;;;;;;;;;;;;20.50;70.93;97030.56;618785;229;64916;-63
2023/06/08 01:10:38;;;;;;;;;;;;;;;20.50;70.89;97027.90;618758;228;67213;-63
2023/06/08 01:13:19;;;;;;;;;;;;;;;20.51;70.87;97032.16;618744;229;67664;-63
2023/06/08 01:15:47;;;;;;;;;;;;;;;20.50;70.89;97033.23;618566;228;64901;-63
2023/06/08 01:18:17;;;;;;;;;;;;;;;20.50;70.90;97029.77;618770;229;67324;-63
2023/06/08 01:21:07;;;;;;;;;;;;;;;20.50;70.88;97027.11;618845;229;66985;-63
2023/06/08 01:23:34;;;;;;;;;;;;;;;20.50;70.86;97030.56;618373;228;65042;-62
2023/06/08 01:26:01;;;;;;;;;;;;;;;20.50;70.90;97029.77;618726;228;65214;-62
2023/06/08 01:28:30;;;;;;;;;;;;;;;20.49;70.87;97025.48;618760;229;64651;-62
2023/06/08 01:30:58;;;;;;;;;;;;;;;20.48;70.87;97024.69;618792;229;65053;-62
2023/06/08 01:33:27;;;;;;;;;;;;;;;20.49;70.87;97030.82;618786;229;67184;-62
2023/06/08 01:35:59;;;;;;;;;;;;;;;20.49;70.86;97026.31;618850;229;66821;-62
2023/06/08 01:38:34;;;;;;;;;;;;;;;20.50;70.86;97029.77;618773;229;64986;-62
2023/06/08 01:41:03;;;;;;;;;;;;;;;20.49;70.84;97025.48;618774;229;65023;-63
2023/06/08 01:43:32;;;;;;;;;;;;;;;20.49;70.87;97026.31;618724;228;67087;-63
2023/06/08 01:46:01;;;;;;;;;;;;;;;20.49;70.85;97023.64;618777;229;65060;-63
2023/06/08 01:48:29;;;;;;;;;;;;;;;20.48;70.88;97022.02;618718;228;67068;-63
2023/06/08 01:50:57;;;;;;;;;;;;;;;20.49;70.84;97020.97;618838;229;67062;-63
2023/06/08 01:53:25;;;;;;;;;;;;;;;20.49;70.82;97028.98;618740;229;65130;-63
2023/06/08 01:55:52;;;;;;;;;;;;;;;20.49;70.82;97023.64;618764;229;67195;-63
2023/06/08 01:58:20;;;;;;;;;;;;;;;20.48;70.82;97019.34;618795;229;64653;-63
2023/06/08 02:00:47;;;;;;;;;;;;;;;20.49;70.81;97022.81;618773;229;65008;-63
2023/06/08 02:03:15;;;;;;;;;;;;;;;20.49;70.81;97031.65;618815;229;67243;-63
2023/06/08 02:05:42;;;;;;;;;;;;;;;20.49;70.79;97031.65;618781;229;66849;-63
2023/06/08 02:08:12;;;;;;;;;;;;;;;20.49;70.78;97031.65;618788;228;43888;-63
2023/06/08 02:10:39;;;;;;;;;;;;;;;20.49;70.79;97028.16;618783;229;67825;-63
2023/06/08 02:13:07;;;;;;;;;;;;;;;20.49;70.79;97028.16;618740;229;65151;-63
2023/06/08 02:15:34;;;;;;;;;;;;;;;20.49;70.78;97025.48;618816;229;65185;-63
2023/06/08 02:18:03;;;;;;;;;;;;;;;20.49;70.78;97022.81;618674;229;67212;-63
2023/06/08 02:20:33;;;;;;;;;;;;;;;20.49;70.79;97022.81;618631;229;64874;-63
2023/06/08 02:22:59;;;;;;;;;;;;;;;20.49;70.78;97025.48;618737;229;63490;-63
2023/06/08 02:25:28;;;;;;;;;;;;;;;20.49;70.77;97022.81;618745;229;67534;-63
2023/06/08 02:27:56;;;;;;;;;;;;;;;20.49;70.79;97020.14;618797;229;64849;-63
2023/06/08 02:30:23;;;;;;;;;;;;;;;20.49;70.79;97018.30;618814;229;63058;-63
2023/06/08 02:32:53;;;;;;;;;;;;;;;20.48;70.79;97021.22;618792;229;64741;-63
2023/06/08 02:35:20;;;;;;;;;;;;;;;20.48;70.74;97022.02;618711;229;65666;-63
2023/06/08 02:37:48;;;;;;;;;;;;;;;20.48;70.77;97022.02;614231;229;64341;-63
2023/06/08 02:40:16;;;;;;;;;;;;;;;20.48;70.75;97024.69;618854;229;67956;-63
2023/06/08 02:42:43;;;;;;;;;;;;;;;20.48;70.77;97022.02;618853;229;65675;-63
2023/06/08 02:45:12;;;;;;;;;;;;;;;20.48;70.77;97024.69;617927;228;43886;-63
2023/06/08 02:47:40;;;;;;;;;;;;;;;20.48;70.74;97019.34;618777;229;67650;-63
2023/06/08 02:50:08;;;;;;;;;;;;;;;20.48;70.78;97030.03;618813;229;64829;-63
2023/06/08 02:52:35;;;;;;;;;;;;;;;20.48;70.78;97018.55;618817;229;63085;-63
2023/06/08 02:55:03;;;;;;;;;;;;;;;20.49;70.78;97025.48;618858;229;67629;-63
2023/06/08 02:57:32;;;;;;;;;;;;;;;20.48;70.79;97026.56;618814;229;67069;-63
2023/06/08 03:00:03;;;;;;;;;;;;;;;20.49;70.80;97025.48;618834;228;43717;-63
2023/06/08 03:02:32;;;;;;;;;;;;;;;20.48;70.78;97022.02;618693;228;44362;-63
2023/06/08 03:05:02;;;;;;;;;;;;;;;20.48;70.80;97022.02;618758;229;67455;-63
2023/06/08 03:07:29;;;;;;;;;;;;;;;20.48;70.80;97023.89;618867;229;63838;-63
2023/06/08 03:09:58;;;;;;;;;;;;;;;20.47;70.82;97023.09;618764;228;45793;-62
2023/06/08 03:12:26;;;;;;;;;;;;;;;20.47;70.81;97023.09;618708;229;67457;-62
2023/06/08 03:14:54;;;;;;;;;;;;;;;20.48;70.78;97021.22;618816;229;65004;-62
2023/06/08 03:17:24;;;;;;;;;;;;;;;20.48;70.80;97022.02;618817;229;64911;-62
2023/06/08 03:19:51;;;;;;;;;;;;;;;20.48;70.78;97024.69;618856;228;65467;-63
2023/06/08 03:22:20;;;;;;;;;;;;;;;20.47;70.76;97024.97;618810;229;62404;-63
2023/06/08 03:24:49;;;;;;;;;;;;;;;20.47;70.77;97024.97;618743;228;44127;-63
2023/06/08 03:27:17;;;;;;;;;;;;;;;20.48;70.75;97023.89;618756;229;67676;-63
2023/06/08 03:29:46;;;;;;;;;;;;;;;20.48;70.75;97022.02;618851;228;43835;-63
2023/06/08 03:32:14;;;;;;;;;;;;;;;20.47;70.74;97023.09;618797;229;68236;-63
2023/06/08 03:34:44;;;;;;;;;;;;;;;20.47;70.74;97023.09;618858;229;67613;-63
2023/06/08 03:37:10;;;;;;;;;;;;;;;20.47;70.74;97020.43;618788;228;62690;-63
2023/06/08 03:39:38;;;;;;;;;;;;;;;20.47;70.73;97019.63;618769;229;67629;-63
2023/06/08 03:42:06;;;;;;;;;;;;;;;20.47;70.72;97017.76;618762;229;66890;-63
2023/06/08 03:44:35;;;;;;;;;;;;;;;20.47;70.70;97015.09;618831;228;42265;-63
2023/06/08 03:47:04;;;;;;;;;;;;;;;20.47;70.71;97011.63;618852;229;65341;-63
2023/06/08 03:49:33;;;;;;;;;;;;;;;20.47;70.72;97017.76;618783;229;65585;-63
2023/06/08 03:52:01;;;;;;;;;;;;;;;20.47;70.68;97016.97;618737;229;65814;-63
2023/06/08 03:54:29;;;;;;;;;;;;;;;20.48;70.69;97019.34;618791;229;67239;-63
2023/06/08 03:56:57;;;;;;;;;;;;;;;20.46;70.68;97016.17;618783;229;66557;-63
2023/06/08 03:59:25;;;;;;;;;;;;;;;20.46;70.67;97016.17;618829;229;65123;-63
2023/06/08 04:01:52;;;;;;;;;;;;;;;20.47;70.67;97014.30;618808;229;65697;-64
2023/06/08 04:04:20;;;;;;;;;;;;;;;20.47;70.65;97015.09;618805;229;65071;-63
2023/06/08 04:06:48;;;;;;;;;;;;;;;20.46;70.66;97013.50;618777;229;65040;-63
2023/06/08 04:09:15;;;;;;;;;;;;;;;20.46;70.67;97018.84;618846;229;64544;-63
2023/06/08 04:11:43;;;;;;;;;;;;;;;20.47;70.65;97015.09;618829;229;67358;-63
2023/06/08 04:14:12;;;;;;;;;;;;;;;20.46;70.66;97015.34;618837;229;63048;-63
2023/06/08 04:16:41;;;;;;;;;;;;;;;20.47;70.64;97016.97;618808;229;67095;-64
2023/06/08 04:19:09;;;;;;;;;;;;;;;20.46;70.64;97010.83;618795;229;65543;-62
2023/06/08 04:21:37;;;;;;;;;;;;;;;20.46;70.63;97010.00;618812;229;65669;-62
2023/06/08 04:24:07;;;;;;;;;;;;;;;20.46;70.64;97013.50;618854;228;45288;-62
2023/06/08 04:26:36;;;;;;;;;;;;;;;20.47;70.63;97014.30;618838;229;67496;-63
2023/06/08 04:29:04;;;;;;;;;;;;;;;20.47;70.63;97014.30;618827;229;64965;-62
2023/06/08 04:31:33;;;;;;;;;;;;;;;20.47;70.62;97017.76;618761;229;64214;-64
2023/06/08 04:34:01;;;;;;;;;;;;;;;20.46;70.63;97016.17;618842;229;66769;-63
2023/06/08 04:36:29;;;;;;;;;;;;;;;20.46;70.63;97010.00;618784;229;62780;-63
2023/06/08 04:38:57;;;;;;;;;;;;;;;20.46;70.62;97016.17;618816;229;64533;-63
2023/06/08 04:41:25;;;;;;;;;;;;;;;20.46;70.64;97012.67;618772;229;68133;-63
2023/06/08 04:43:54;;;;;;;;;;;;;;;20.45;70.64;97019.89;618781;229;65744;-63
2023/06/08 04:46:25;;;;;;;;;;;;;;;20.46;70.64;97015.34;618743;229;67918;-63
2023/06/08 04:48:53;;;;;;;;;;;;;;;20.46;70.65;97016.17;618790;229;65763;-63
2023/06/08 04:51:29;;;;;;;;;;;;;;;20.46;70.65;97018.02;618857;228;43762;-63
2023/06/08 04:53:54;;;;;;;;;;;;;;;20.46;70.66;97018.84;618650;228;64229;-63
2023/06/08 04:56:23;;;;;;;;;;;;;;;20.45;70.66;97019.89;618790;229;64635;-63
2023/06/08 04:58:51;;;;;;;;;;;;;;;20.45;70.69;97019.89;618774;229;65157;-63
2023/06/08 05:01:19;;;;;;;;;;;;;;;20.46;70.67;97024.18;618770;229;64270;-63
2023/06/08 05:03:47;;;;;;;;;;;;;;;20.46;70.68;97020.69;618785;229;65232;-63
2023/06/08 05:06:14;;;;;;;;;;;;;;;20.45;70.72;97017.22;618809;229;65271;-63
2023/06/08 05:08:42;;;;;;;;;;;;;;;20.46;70.71;97026.02;618687;229;67487;-63
2023/06/08 05:11:10;;;;;;;;;;;;;;;20.45;70.72;97025.23;618709;229;66961;-63
2023/06/08 05:13:37;;;;;;;;;;;;;;;20.46;70.72;97026.02;618049;229;63007;-63
2023/06/08 05:16:05;;;;;;;;;;;;;;;20.46;70.74;97023.35;617643;229;65032;-63
2023/06/08 05:18:32;;;;;;;;;;;;;;;20.46;70.75;97026.02;617733;229;66895;-63
2023/06/08 05:21:00;;;;;;;;;;;;;;;20.46;70.75;97026.02;617621;229;65002;-63
2023/06/08 05:23:27;;;;;;;;;;;;;;;20.46;70.76;97031.36;617702;229;67164;-65
2023/06/08 05:25:55;;;;;;;;;;;;;;;20.46;70.77;97031.36;617610;229;67172;-63
2023/06/08 05:28:22;;;;;;;;;;;;;;;20.46;70.80;97031.36;617674;229;65097;-63
2023/06/08 05:30:50;;;;;;;;;;;;;;;20.45;70.82;97035.11;617718;229;67184;-63
2023/06/08 05:33:17;;;;;;;;;;;;;;;20.45;70.84;97030.56;617660;229;67098;-63
2023/06/08 05:35:47;;;;;;;;;;;;;;;20.45;70.83;97032.44;617668;229;65200;-63
2023/06/08 05:38:15;;;;;;;;;;;;;;;20.45;70.83;97032.44;617660;229;64937;-63
2023/06/08 05:40:42;;;;;;;;;;;;;;;20.45;70.83;97033.23;617681;229;67037;-63
2023/06/08 05:43:10;;;;;;;;;;;;;;;20.45;70.85;97030.56;617716;229;65006;-64
2023/06/08 05:45:37;;;;;;;;;;;;;;;20.45;70.86;97030.56;617676;229;67116;-63
2023/06/08 05:48:07;;;;;;;;;;;;;;;20.45;70.90;97038.57;617643;229;66925;-63
2023/06/08 05:50:34;;;;;;;;;;;;;;;20.45;70.90;97040.45;617678;229;62975;-63
2023/06/08 05:53:02;;;;;;;;;;;;;;;20.45;70.92;97033.23;617625;229;67165;-63
2023/06/08 05:55:30;;;;;;;;;;;;;;;20.43;70.92;97030.02;617701;229;67388;-63
2023/06/08 05:57:57;;;;;;;;;;;;;;;20.45;70.94;97029.77;617663;229;65014;-64
2023/06/08 06:00:27;;;;;;;;;;;;;;;20.44;70.95;97023.63;617632;228;49435;-62
2023/06/08 06:02:54;;;;;;;;;;;;;;;20.45;70.96;97025.23;617664;229;64921;-63
2023/06/08 06:05:22;;;;;;;;;;;;;;;20.45;70.99;97024.44;617617;229;62692;-63
2023/06/08 06:07:49;;;;;;;;;;;;;;;20.45;71.00;97024.44;617729;229;67149;-63
2023/06/08 06:10:17;;;;;;;;;;;;;;;20.43;70.87;97019.34;617062;227;67032;-63
2023/06/08 06:12:44;;;;;;;;;;;;;;;20.43;71.21;97018.55;616997;229;64923;-63
2023/06/08 06:15:12;;;;;;;;;;;;;;;20.44;71.44;97015.63;615382;230;64296;-63
2023/06/08 06:17:39;;;;;;;;;;;;;;;20.45;71.62;97019.89;616732;228;64948;-66
2023/06/08 06:20:07;;;;;;;;;;;;;;;20.45;71.38;97017.22;619620;229;62679;-62
2023/06/08 06:22:35;;;;;;;;;;;;;;;20.45;71.26;97024.44;619648;229;67379;-62
2023/06/08 06:25:04;;;;;;;;;;;;;;;20.46;71.26;97024.18;619549;229;66947;-63
2023/06/08 06:27:31;;;;;;;;;;;;;;;20.45;71.24;97014.55;619591;229;62894;-66
2023/06/08 06:30:00;;;;;;;;;;;;;;;20.50;71.47;97016.42;619403;229;67178;-62
2023/06/08 06:32:28;;;;;;;;;;;;;;;20.51;71.00;97016.14;619407;226;67056;-62
2023/06/08 06:34:56;;;;;;;;;;;;;;;20.51;71.24;97008.13;619599;229;65028;-62
2023/06/08 06:37:23;;;;;;;;;;;;;;;20.50;71.38;97006.55;619627;229;67130;-62
2023/06/08 06:39:51;;;;;;;;;;;;;;;20.50;71.35;96998.53;619577;229;67170;-63
2023/06/08 06:42:20;;;;;;;;;;;;;;;20.49;71.38;96999.61;619603;229;65048;-61
2023/06/08 06:44:50;;;;;;;;;;;;;;;20.50;71.42;97000.41;619327;228;48817;-62
2023/06/08 06:47:17;;;;;;;;;;;;;;;20.49;71.42;96999.61;619600;229;67034;-62
2023/06/08 06:49:45;;;;;;;;;;;;;;;20.51;71.54;96997.45;619611;229;65026;-62
2023/06/08 06:52:12;;;;;;;;;;;;;;;20.51;71.38;96996.66;619605;229;64945;-62
2023/06/08 06:54:40;;;;;;;;;;;;;;;20.50;71.46;96987.86;619569;229;64957;-62
2023/06/08 06:57:07;;;;;;;;;;;;;;;20.51;71.43;96993.98;619567;229;65024;-62
2023/06/08 06:59:34;;;;;;;;;;;;;;;20.51;71.48;96994.78;619627;229;66980;-62
2023/06/08 07:02:03;;;;;;;;;;;;;;;20.50;71.55;96990.53;619122;229;66946;-61
2023/06/08 07:04:31;;;;;;;;;;;;;;;20.51;71.47;96991.32;619602;229;65158;-63
2023/06/08 07:06:59;;;;;;;;;;;;;;;20.51;71.47;96985.98;619525;229;67254;-62
2023/06/08 07:09:27;;;;;;;;;;;;;;;20.51;71.42;96981.44;619523;229;67326;-61
2023/06/08 07:11:54;;;;;;;;;;;;;;;20.51;71.45;96984.11;619470;229;65335;-62
2023/06/08 07:14:22;;;;;;;;;;;;;;;20.52;71.49;96983.05;617796;229;67176;-62
2023/06/08 07:16:50;;;;;;;;;;;;;;;20.51;71.48;96984.11;617625;229;64905;-62
2023/06/08 07:19:17;;;;;;;;;;;;;;;20.52;71.52;96979.59;617636;229;62997;-62
2023/06/08 07:21:45;;;;;;;;;;;;;;;20.52;71.53;96982.27;617621;229;65267;-62
2023/06/08 07:24:13;;;;;;;;;;;;;;;20.52;71.57;96975.05;617598;229;67450;-62
2023/06/08 07:26:40;;;;;;;;;;;;;;;20.53;71.46;96984.67;617655;229;65004;-62
2023/06/08 07:29:09;;;;;;;;;;;;;;;20.53;71.51;96978.52;617562;229;64306;-61
2023/06/08 07:31:39;;;;;;;;;;;;;;;20.53;71.55;96979.34;617657;229;64888;-62
2023/06/08 07:34:06;;;;;;;;;;;;;;;20.53;71.61;96982.01;617624;229;65042;-62
2023/06/08 07:36:35;;;;;;;;;;;;;;;20.53;71.56;96978.52;617593;229;65251;-62
2023/06/08 07:39:03;;;;;;;;;;;;;;;20.53;71.63;96984.67;617645;229;67210;-64
2023/06/08 07:41:31;;;;;;;;;;;;;;;20.53;71.62;96981.18;617599;229;64977;-62
2023/06/08 07:43:59;;;;;;;;;;;;;;;20.54;71.62;96986.30;617532;229;64779;-62
2023/06/08 07:46:27;;;;;;;;;;;;;;;20.54;71.42;96974.80;617632;229;67101;-62
2023/06/08 07:48:54;;;;;;;;;;;;;;;20.55;71.37;96982.55;617578;229;62970;-63
2023/06/08 07:51:22;;;;;;;;;;;;;;;20.54;71.38;96980.95;617661;229;67269;-62
2023/06/08 07:53:49;;;;;;;;;;;;;;;20.55;71.39;96979.08;617577;229;64941;-64
2023/06/08 07:56:18;;;;;;;;;;;;;;;20.55;71.42;96979.88;617629;229;65194;-65
2023/06/08 07:58:45;;;;;;;;;;;;;;;20.56;71.13;96978.80;617549;229;64868;-63
2023/06/08 08:01:13;;;;;;;;;;;;;;;20.57;71.14;96982.27;617565;229;67076;-63
2023/06/08 08:03:40;;;;;;;;;;;;;;;20.57;71.23;96977.75;617580;229;64845;-63
2023/06/08 08:06:07;;;;;;;;;;;;;;;20.57;71.37;96980.42;617560;229;67206;-63
2023/06/08 08:08:35;;;;;;;;;;;;;;;20.57;71.39;96980.42;617609;229;64909;-62
2023/06/08 08:11:03;;;;;;;;;;;;;;;20.58;71.22;96982.01;617368;229;64317;-63
2023/06/08 08:13:30;;;;;;;;;;;;;;;20.57;71.47;96977.75;617587;229;64960;-63
2023/06/08 08:15:58;;;;;;;;;;;;;;;20.57;71.57;96976.92;617678;229;63951;-62
2023/06/08 08:18:26;;;;;;;;;;;;;;;20.57;71.60;96980.42;614301;229;65080;-63
2023/06/08 08:20:54;;;;;;;;;;;;;;;20.58;71.58;96978.54;617544;229;66678;-62
2023/06/08 08:23:21;;;;;;;;;;;;;;;20.57;71.74;96980.42;617656;229;65716;-62
2023/06/08 08:25:50;;;;;;;;;;;;;;;20.58;71.73;96976.66;617608;229;64986;-62
2023/06/08 08:28:18;;;;;;;;;;;;;;;20.58;71.65;96975.87;617625;229;66877;-62
2023/06/08 08:30:45;;;;;;;;;;;;;;;20.58;71.60;96973.20;617722;229;66878;-62
2023/06/08 08:33:13;;;;;;;;;;;;;;;20.59;71.35;96980.13;617568;229;62902;-63
2023/06/08 08:35:41;;;;;;;;;;;;;;;20.58;70.31;96976.66;617621;229;67748;-62
2023/06/08 08:38:08;;;;;;;;;;;;;;;20.60;70.46;96979.08;617636;229;67013;-63
2023/06/08 08:40:36;;;;;;;;;;;;;;;20.61;71.05;96978.80;617594;229;65045;-63
2023/06/08 08:43:06;;;;;;;;;;;;;;;20.60;71.29;96971.87;617651;229;66893;-63
2023/06/08 08:45:35;;;;;;;;;;;;;;;20.60;71.11;96969.20;617566;228;66995;-63
2023/06/08 08:48:02;;;;;;;;;;;;;;;20.64;70.81;96971.33;617517;229;62986;-63
2023/06/08 08:50:33;;;;;;;;;;;;;;;20.64;70.98;96965.98;617658;229;65185;-63
2023/06/08 08:53:01;;;;;;;;;;;;;;;20.63;71.02;96969.73;617598;229;64922;-63
2023/06/08 08:55:29;;;;;;;;;;;;;;;20.62;71.27;96971.58;617554;229;65036;-64
2023/06/08 08:57:58;;;;;;;;;;;;;;;20.63;71.62;96964.39;617680;229;67099;-63
2023/06/08 09:00:26;;;;;;;;;;;;;;;20.63;71.79;96969.73;617619;229;66886;-62
2023/06/08 09:02:53;;;;;;;;;;;;;;;20.61;71.80;96973.45;617558;229;65091;-63
2023/06/08 09:05:21;;;;;;;;;;;;;;;20.61;71.72;96965.45;617646;229;64874;-63
2023/06/08 09:07:49;;;;;;;;;;;;;;;20.60;71.66;96963.86;617620;229;65313;-62
2023/06/08 09:10:21;;;;;;;;;;;;;;;20.61;71.69;96964.66;617554;229;62894;-63
2023/06/08 09:12:50;;;;;;;;;;;;;;;20.62;71.68;96968.91;617498;229;65012;-63
2023/06/08 09:15:27;;;;;;;;;;;;;;;20.63;71.62;96967.06;617542;229;64866;-63
2023/06/08 09:18:02;;;;;;;;;;;;;;;20.63;71.64;96964.39;617610;229;64957;-63
2023/06/08 09:20:29;;;;;;;;;;;;;;;20.63;71.69;96967.06;617566;228;67214;-63
2023/06/08 09:22:57;;;;;;;;;;;;;;;20.63;71.77;96967.86;617496;229;66986;-63
2023/06/08 09:25:38;;;;;;;;;;;;;;;20.62;71.72;96963.57;617609;229;63000;-63
2023/06/08 09:28:16;;;;;;;;;;;;;;;20.63;71.71;96956.38;617618;229;64699;-63
2023/06/08 09:30:44;;;;;;;;;;;;;;;20.63;71.73;96956.38;617605;229;66798;-63
2023/06/08 09:33:29;;;;;;;;;;;;;;;20.62;71.78;96955.56;617597;229;64980;-60
2023/06/08 09:36:01;;;;;;;;;;;;;;;20.63;71.64;96956.38;617538;229;67833;-62
2023/06/08 09:38:30;;;;;;;;;;;;;;;20.63;71.62;96961.72;617984;227;67118;-61
2023/06/08 09:41:05;;;;;;;;;;;;;;;20.63;71.79;96951.84;623121;227;64985;-61
2023/06/08 09:43:35;;;;;;;;;;;;;;;20.63;71.74;96965.19;621829;227;67162;-62
2023/06/08 09:46:02;;;;;;;;;;;;;;;20.63;71.82;96953.71;623932;226;64953;-62
2023/06/08 09:48:30;;;;;;;;;;;;;;;20.63;71.78;96954.51;622665;227;62566;-62
2023/06/08 09:51:00;;;;;;;;;;;;;;;20.63;71.85;96949.17;616978;230;64888;-62
2023/06/08 09:53:28;;;;;;;;;;;;;;;20.63;71.86;96945.70;617002;230;67117;-63
2023/06/08 09:55:57;;;;;;;;;;;;;;;20.64;71.85;96947.30;617093;230;64994;-63
2023/06/08 09:58:25;;;;;;;;;;;;;;;20.64;71.86;96939.28;617007;230;66693;-62
2023/06/08 10:00:54;;;;;;;;;;;;;;;20.64;71.82;96939.28;616988;230;64740;-63
2023/06/08 10:03:27;;;;;;;;;;;;;;;20.64;71.83;96939.28;616987;230;64865;-62
2023/06/08 10:05:55;;;;;;;;;;;;;;;20.64;71.75;96947.30;616926;230;67292;-62
2023/06/08 10:08:22;;;;;;;;;;;;;;;20.65;71.77;96938.20;617034;230;66989;-63
2023/06/08 10:10:50;;;;;;;;;;;;;;;20.64;71.78;96933.94;616977;230;62842;-63
2023/06/08 10:13:18;;;;;;;;;;;;;;;20.64;71.82;96932.06;618036;229;64599;-62
2023/06/08 10:15:46;;;;;;;;;;;;;;;20.65;71.86;96935.53;619633;229;64812;-63
2023/06/08 10:18:14;;;;;;;;;;;;;;;20.65;71.79;96933.66;619597;229;65098;-62
2023/06/08 10:20:42;;;;;;;;;;;;;;;20.65;71.79;96927.52;619570;229;66891;-62
2023/06/08 10:23:09;;;;;;;;;;;;;;;20.65;71.73;96927.52;619567;229;66104;-63
2023/06/08 10:25:38;;;;;;;;;;;;;;;20.66;71.66;96929.14;619567;229;63043;-61
2023/06/08 10:28:07;;;;;;;;;;;;;;;20.66;71.35;96915.79;619508;229;68632;-62
2023/06/08 10:30:40;;;;;;;;;;;;;;;20.66;70.06;96918.45;619591;229;67201;-62
2023/06/08 10:33:09;;;;;;;;;;;;;;;20.66;71.16;96913.91;619558;227;64201;-62
2023/06/08 10:35:37;;;;;;;;;;;;;;;20.66;71.46;96910.45;619597;229;67237;-62
2023/06/08 10:38:08;;;;;;;;;;;;;;;20.66;71.91;96913.12;619589;229;64941;-62
2023/06/08 10:40:46;;;;;;;;;;;;;;;20.66;71.83;96907.78;619617;229;62924;-62
2023/06/08 10:43:14;;;;;;;;;;;;;;;20.65;71.31;96904.28;619527;229;65051;-62
2023/06/08 10:45:43;;;;;;;;;;;;;;;20.66;70.96;96908.57;619605;229;66830;-63
2023/06/08 10:48:12;;;;;;;;;;;;;;;20.66;70.78;96897.89;619528;229;65022;-62
2023/06/08 10:50:41;;;;;;;;;;;;;;;20.67;70.47;96893.34;619530;228;67332;-62
2023/06/08 10:53:09;;;;;;;;;;;;;;;20.66;69.25;96897.89;619520;229;67294;-64
2023/06/08 10:55:36;;;;;;;;;;;;;;;20.69;69.57;96889.33;619550;229;65037;-62
2023/06/08 10:58:08;;;;;;;;;;;;;;;20.69;70.73;96892.00;619595;229;67123;-62
2023/06/08 11:00:42;;;;;;;;;;;;;;;20.68;71.07;96885.08;619399;228;67073;-62
2023/06/08 11:03:06;;;;;;;;;;;;;;;20.69;71.36;96893.88;619397;228;65091;-62
2023/06/08 11:05:35;;;;;;;;;;;;;;;20.68;71.57;96886.92;619465;229;67224;-63
2023/06/08 11:08:03;;;;;;;;;;;;;;;20.68;71.60;96884.25;619577;229;67093;-62
2023/06/08 11:10:32;;;;;;;;;;;;;;;20.67;71.73;96886.13;619512;229;65139;-61
2023/06/08 11:13:10;;;;;;;;;;;;;;;20.68;71.60;96884.25;619258;229;64699;-62
2023/06/08 11:15:39;;;;;;;;;;;;;;;20.67;71.64;96883.45;618547;228;64986;-62
2023/06/08 11:18:08;;;;;;;;;;;;;;;20.67;71.71;96878.12;618714;229;64991;-62
2023/06/08 11:20:37;;;;;;;;;;;;;;;20.68;71.80;96873.57;618661;229;67389;-62
2023/06/08 11:23:08;;;;;;;;;;;;;;;20.67;71.80;96874.66;618737;229;67070;-62
2023/06/08 11:25:36;;;;;;;;;;;;;;;20.67;71.81;96872.78;618561;229;65095;-62
2023/06/08 11:28:07;;;;;;;;;;;;;;;20.68;71.86;96873.57;618408;229;67841;-62
2023/06/08 11:30:35;;;;;;;;;;;;;;;20.67;71.78;96867.44;619886;226;67184;-62
2023/06/08 11:33:06;;;;;;;;;;;;;;;20.71;70.77;96873.05;625123;226;65019;-61
2023/06/08 11:35:34;;;;;;;;;;;;;;;20.73;69.53;96865.55;618722;229;67266;-62
2023/06/08 11:38:02;;;;;;;;;;;;;;;20.73;68.15;96862.88;618690;229;64951;-61
2023/06/08 11:40:30;;;;;;;;;;;;;;;20.73;68.63;96860.20;618665;229;62816;-62
2023/06/08 11:43:00;;;;;;;;;;;;;;;20.74;68.88;96856.48;618706;229;67085;-61
2023/06/08 11:45:28;;;;;;;;;;;;;;;20.74;68.38;96861.83;618512;229;64785;-61
2023/06/08 11:47:57;;;;;;;;;;;;;;;20.74;69.50;96867.16;618699;229;63047;-61
2023/06/08 11:50:24;;;;;;;;;;;;;;;20.72;70.59;96862.08;618735;229;67153;-61
2023/06/08 11:52:55;;;;;;;;;;;;;;;20.73;70.24;96865.55;618674;229;45452;-61
2023/06/08 11:55:24;;;;;;;;;;;;;;;20.72;70.24;96859.41;618724;229;65058;-61
2023/06/08 11:57:55;;;;;;;;;;;;;;;20.72;71.04;96859.41;618728;229;64886;-61
2023/06/08 12:00:26;;;;;;;;;;;;;;;20.72;71.19;96853.28;618708;229;66850;-61
2023/06/08 12:02:55;;;;;;;;;;;;;;;20.71;71.06;96855.16;618741;229;62832;-61
2023/06/08 12:05:26;;;;;;;;;;;;;;;20.71;70.12;96849.81;618635;227;67226;-61
2023/06/08 12:07:55;;;;;;;;;;;;;;;20.71;68.64;96851.69;618411;229;67411;-61
2023/06/08 12:10:24;;;;;;;;;;;;;;;20.72;71.06;96848.73;618541;229;64985;-62
2023/06/08 12:12:52;;;;;;;;;;;;;;;20.72;71.71;96847.94;617697;229;67083;-61
2023/06/08 12:15:19;;;;;;;;;;;;;;;20.71;71.81;96849.02;615255;230;67057;-61
2023/06/08 12:17:47;;;;;;;;;;;;;;;20.70;69.31;96852.74;615270;230;63007;-61
2023/06/08 12:20:15;;;;;;;;;;;;;;;20.72;70.56;96853.28;609288;230;67281;-61
2023/06/08 12:22:43;;;;;;;;;;;;;;;20.72;71.75;96848.73;615346;230;66812;-61
2023/06/08 12:25:10;;;;;;;;;;;;;;;20.71;71.65;96851.69;615327;230;64997;-61
2023/06/08 12:27:39;;;;;;;;;;;;;;;20.71;71.92;96844.47;615296;230;66687;-62
2023/06/08 12:30:08;;;;;;;;;;;;;;;20.71;71.97;96847.14;615350;230;64708;-61
2023/06/08 12:32:36;;;;;;;;;;;;;;;20.70;72.04;96839.39;615362;230;65016;-62
2023/06/08 12:35:03;;;;;;;;;;;;;;;20.71;72.01;96849.02;615358;230;67175;-61
2023/06/08 12:37:31;;;;;;;;;;;;;;;20.71;72.01;96835.67;615327;230;66634;-62
2023/06/08 12:39:58;;;;;;;;;;;;;;;20.71;72.04;96835.67;615377;230;65105;-62
2023/06/08 12:42:26;;;;;;;;;;;;;;;20.71;72.08;96838.34;615284;230;67193;-62
2023/06/08 12:44:53;;;;;;;;;;;;;;;20.71;72.06;96833.80;615271;230;66901;-62
2023/06/08 12:47:21;;;;;;;;;;;;;;;20.72;72.03;96837.25;615321;230;62736;-62
2023/06/08 12:49:48;;;;;;;;;;;;;;;20.71;71.14;96824.98;615302;230;67174;-62
2023/06/08 12:52:18;;;;;;;;;;;;;;;20.73;71.99;96830.83;615297;230;67028;-62
2023/06/08 12:54:46;;;;;;;;;;;;;;;20.72;72.11;96831.91;615333;230;62936;-61